sensor_id;sensor_type;location;lat;lon;timestamp;temperature;humidity
4090;DHT22;2059;48.538;12.146;2022-12-13T00:03:13;-4.90;99.90
4090;DHT22;2059;48.538;12.146;2022-12-13T00:08:15;-5.10;99.90
4090;DHT22;2059;48.538;12.146;2022-12-13T00:13:18;-4.70;99.90
4090;DHT22;2059;48.538;12.146;2022-12-13T00:18:20;-4.60;99.90
4090;DHT22;2059;48.538;12.146;2022-12-13T00:23:22;-5.00;99.90
4090;DHT22;2059;48.538;12.146;2022-12-13T00:28:25;-5.30;99.90
4090;DHT22;2059;48.538;12.146;2022-12-13T00:33:28;-5.40;99.90
4090;DHT22;2059;48.538;12.146;2022-12-13T00:38:30;-5.30;99.90
4090;DHT22;2059;48.538;12.146;2022-12-13T00:43:34;-5.20;99.90
4090;DHT22;2059;48.538;12.146;2022-12-13T00:48:35;-5.10;99.90
4090;DHT22;2059;48.538;12.146;2022-12-13T00:53:37;-5.00;99.90
4090;DHT22;2059;48.538;12.146;2022-12-13T00:58:41;-4.90;99.90
4090;DHT22;2059;48.538;12.146;2022-12-13T01:03:44;-5.10;99.90
4090;DHT22;2059;48.538;12.146;2022-12-13T01:08:46;-5.10;99.90
4090;DHT22;2059;48.538;12.146;2022-12-13T01:13:49;-4.80;99.90
4090;DHT22;2059;48.538;12.146;2022-12-13T01:18:51;-5.20;99.90
4090;DHT22;2059;48.538;12.146;2022-12-13T01:23:53;-5.30;99.90
4090;DHT22;2059;48.538;12.146;2022-12-13T01:28:58;-5.70;99.90
4090;DHT22;2059;48.538;12.146;2022-12-13T01:33:59;-5.60;99.90
4090;DHT22;2059;48.538;12.146;2022-12-13T01:39:11;-5.70;99.90
4090;DHT22;2059;48.538;12.146;2022-12-13T01:49:56;-5.80;99.90
4090;DHT22;2059;48.538;12.146;2022-12-13T01:55:01;-5.60;99.90
4090;DHT22;2059;48.538;12.146;2022-12-13T02:00:04;-5.70;99.90
4090;DHT22;2059;48.538;12.146;2022-12-13T02:05:12;-5.90;99.90
4090;DHT22;2059;48.538;12.146;2022-12-13T02:10:16;-5.80;99.90
4090;DHT22;2059;48.538;12.146;2022-12-13T02:15:19;-5.80;99.90
4090;DHT22;2059;48.538;12.146;2022-12-13T02:20:41;-5.40;99.90
4090;DHT22;2059;48.538;12.146;2022-12-13T02:26:01;-5.80;99.90
4090;DHT22;2059;48.538;12.146;2022-12-13T02:31:10;-5.50;99.90
4090;DHT22;2059;48.538;12.146;2022-12-13T02:36:18;-5.70;99.90
4090;DHT22;2059;48.538;12.146;2022-12-13T02:41:27;-5.90;99.90
4090;DHT22;2059;48.538;12.146;2022-12-13T02:46:38;-5.80;99.90
4090;DHT22;2059;48.538;12.146;2022-12-13T02:51:42;-5.90;99.90
4090;DHT22;2059;48.538;12.146;2022-12-13T02:56:53;-5.90;99.90
4090;DHT22;2059;48.538;12.146;2022-12-13T03:02:04;-5.60;99.40
4090;DHT22;2059;48.538;12.146;2022-12-13T03:07:18;-5.80;99.60
4090;DHT22;2059;48.538;12.146;2022-12-13T03:12:29;-6.10;99.80
4090;DHT22;2059;48.538;12.146;2022-12-13T03:17:55;-6.10;99.90
4090;DHT22;2059;48.538;12.146;2022-12-13T03:22:59;-6.10;99.90
4090;DHT22;2059;48.538;12.146;2022-12-13T03:28:01;-6.10;99.90
4090;DHT22;2059;48.538;12.146;2022-12-13T03:33:05;-5.90;99.50
4090;DHT22;2059;48.538;12.146;2022-12-13T03:38:07;-6.10;99.60
4090;DHT22;2059;48.538;12.146;2022-12-13T03:43:09;-6.30;99.90
4090;DHT22;2059;48.538;12.146;2022-12-13T03:48:12;-6.60;99.90
4090;DHT22;2059;48.538;12.146;2022-12-13T03:53:15;-6.70;99.90
4090;DHT22;2059;48.538;12.146;2022-12-13T03:58:16;-6.70;99.90
4090;DHT22;2059;48.538;12.146;2022-12-13T04:03:20;-6.60;99.90
4090;DHT22;2059;48.538;12.146;2022-12-13T04:08:21;-6.40;99.90
4090;DHT22;2059;48.538;12.146;2022-12-13T04:13:23;-6.30;99.90
4090;DHT22;2059;48.538;12.146;2022-12-13T04:18:35;-6.30;99.90
4090;DHT22;2059;48.538;12.146;2022-12-13T04:23:37;-6.50;99.90
4090;DHT22;2059;48.538;12.146;2022-12-13T04:28:39;-6.70;99.90
4090;DHT22;2059;48.538;12.146;2022-12-13T04:33:42;-6.40;99.90
4090;DHT22;2059;48.538;12.146;2022-12-13T04:38:44;-6.20;99.90
4090;DHT22;2059;48.538;12.146;2022-12-13T04:43:50;-6.10;99.90
4090;DHT22;2059;48.538;12.146;2022-12-13T04:48:53;-6.20;99.90
4090;DHT22;2059;48.538;12.146;2022-12-13T04:53:55;-6.20;99.90
4090;DHT22;2059;48.538;12.146;2022-12-13T04:58:57;-6.30;99.90
4090;DHT22;2059;48.538;12.146;2022-12-13T05:04:02;-6.50;99.90
4090;DHT22;2059;48.538;12.146;2022-12-13T05:09:04;-6.50;99.90
4090;DHT22;2059;48.538;12.146;2022-12-13T05:14:07;-6.60;99.90
4090;DHT22;2059;48.538;12.146;2022-12-13T05:19:10;-6.50;99.90
4090;DHT22;2059;48.538;12.146;2022-12-13T05:24:12;-6.30;99.90
4090;DHT22;2059;48.538;12.146;2022-12-13T05:29:14;-6.50;99.90
4090;DHT22;2059;48.538;12.146;2022-12-13T05:34:17;-6.40;99.90
4090;DHT22;2059;48.538;12.146;2022-12-13T05:39:19;-6.70;99.90
4090;DHT22;2059;48.538;12.146;2022-12-13T05:44:21;-6.80;99.90
4090;DHT22;2059;48.538;12.146;2022-12-13T05:49:24;-6.40;99.90
4090;DHT22;2059;48.538;12.146;2022-12-13T05:54:26;-6.20;99.90
4090;DHT22;2059;48.538;12.146;2022-12-13T05:59:28;-6.00;99.90
4090;DHT22;2059;48.538;12.146;2022-12-13T06:04:31;-6.00;99.90
4090;DHT22;2059;48.538;12.146;2022-12-13T06:09:33;-6.20;99.90
4090;DHT22;2059;48.538;12.146;2022-12-13T06:14:35;-6.20;99.90
4090;DHT22;2059;48.538;12.146;2022-12-13T06:19:38;-6.10;99.90
4090;DHT22;2059;48.538;12.146;2022-12-13T06:24:40;-6.00;99.90
4090;DHT22;2059;48.538;12.146;2022-12-13T06:29:42;-6.10;99.90
4090;DHT22;2059;48.538;12.146;2022-12-13T06:34:45;-6.20;99.90
4090;DHT22;2059;48.538;12.146;2022-12-13T06:39:47;-6.10;99.90
4090;DHT22;2059;48.538;12.146;2022-12-13T06:44:49;-6.20;99.90
4090;DHT22;2059;48.538;12.146;2022-12-13T06:49:53;-5.90;99.90
4090;DHT22;2059;48.538;12.146;2022-12-13T06:54:55;-5.90;99.90
4090;DHT22;2059;48.538;12.146;2022-12-13T06:59:57;-5.90;99.90
4090;DHT22;2059;48.538;12.146;2022-12-13T07:05:00;-5.80;99.90
4090;DHT22;2059;48.538;12.146;2022-12-13T07:10:02;-5.80;99.90
4090;DHT22;2059;48.538;12.146;2022-12-13T07:15:05;-5.80;99.90
4090;DHT22;2059;48.538;12.146;2022-12-13T07:20:10;-5.70;99.90
4090;DHT22;2059;48.538;12.146;2022-12-13T07:25:13;-5.60;99.90
4090;DHT22;2059;48.538;12.146;2022-12-13T07:30:15;-5.60;99.90
4090;DHT22;2059;48.538;12.146;2022-12-13T07:35:18;-5.70;99.90
4090;DHT22;2059;48.538;12.146;2022-12-13T07:40:20;-5.70;99.90
4090;DHT22;2059;48.538;12.146;2022-12-13T07:45:22;-5.50;99.90
4090;DHT22;2059;48.538;12.146;2022-12-13T07:50:25;-5.50;99.90
4090;DHT22;2059;48.538;12.146;2022-12-13T07:55:27;-5.20;99.90
4090;DHT22;2059;48.538;12.146;2022-12-13T08:00:29;-5.30;99.90
4090;DHT22;2059;48.538;12.146;2022-12-13T08:05:33;-4.90;99.90
4090;DHT22;2059;48.538;12.146;2022-12-13T08:10:36;-4.80;99.80
4090;DHT22;2059;48.538;12.146;2022-12-13T08:15:38;-4.50;99.20
4090;DHT22;2059;48.538;12.146;2022-12-13T08:20:41;-4.60;99.20
4090;DHT22;2059;48.538;12.146;2022-12-13T08:25:49;-4.80;99.50
4090;DHT22;2059;48.538;12.146;2022-12-13T08:30:52;-4.70;99.90
4090;DHT22;2059;48.538;12.146;2022-12-13T08:35:56;-4.10;99.70
4090;DHT22;2059;48.538;12.146;2022-12-13T08:40:58;-3.90;98.80
4090;DHT22;2059;48.538;12.146;2022-12-13T08:46:00;-3.60;98.60
4090;DHT22;2059;48.538;12.146;2022-12-13T08:51:06;-3.50;98.50
4090;DHT22;2059;48.538;12.146;2022-12-13T08:56:10;-3.40;98.20
4090;DHT22;2059;48.538;12.146;2022-12-13T09:01:12;-3.10;98.40
4090;DHT22;2059;48.538;12.146;2022-12-13T09:06:16;-2.90;98.50
4090;DHT22;2059;48.538;12.146;2022-12-13T09:11:18;-2.70;98.00
4090;DHT22;2059;48.538;12.146;2022-12-13T09:16:20;-2.50;97.70
4090;DHT22;2059;48.538;12.146;2022-12-13T09:21:24;-2.10;98.40
4090;DHT22;2059;48.538;12.146;2022-12-13T09:26:26;-1.70;97.00
4090;DHT22;2059;48.538;12.146;2022-12-13T09:31:28;-1.40;96.70
4090;DHT22;2059;48.538;12.146;2022-12-13T09:36:31;-1.50;96.80
4090;DHT22;2059;48.538;12.146;2022-12-13T09:41:35;-1.30;97.40
4090;DHT22;2059;48.538;12.146;2022-12-13T09:46:40;-1.00;96.50
4090;DHT22;2059;48.538;12.146;2022-12-13T09:51:48;-0.80;96.60
4090;DHT22;2059;48.538;12.146;2022-12-13T09:56:52;-0.60;96.90
4090;DHT22;2059;48.538;12.146;2022-12-13T10:01:55;-0.20;96.50
4090;DHT22;2059;48.538;12.146;2022-12-13T10:06:58;-0.40;95.70
4090;DHT22;2059;48.538;12.146;2022-12-13T10:12:01;-0.30;95.10
4090;DHT22;2059;48.538;12.146;2022-12-13T10:17:06;-0.60;95.70
4090;DHT22;2059;48.538;12.146;2022-12-13T10:22:12;-0.30;95.70
4090;DHT22;2059;48.538;12.146;2022-12-13T10:27:17;-0.50;95.90
4090;DHT22;2059;48.538;12.146;2022-12-13T10:32:19;-0.70;95.40
4090;DHT22;2059;48.538;12.146;2022-12-13T10:37:28;-0.40;95.80
4090;DHT22;2059;48.538;12.146;2022-12-13T10:42:30;-0.50;95.50
4090;DHT22;2059;48.538;12.146;2022-12-13T10:47:32;-0.70;95.80
4090;DHT22;2059;48.538;12.146;2022-12-13T10:52:40;-0.60;95.80
4090;DHT22;2059;48.538;12.146;2022-12-13T10:57:48;-0.40;95.60
4090;DHT22;2059;48.538;12.146;2022-12-13T11:02:53;-0.30;95.90
4090;DHT22;2059;48.538;12.146;2022-12-13T11:08:11;-0.30;95.20
4090;DHT22;2059;48.538;12.146;2022-12-13T11:13:23;0.10;95.20
4090;DHT22;2059;48.538;12.146;2022-12-13T11:18:26;0.40;94.40
4090;DHT22;2059;48.538;12.146;2022-12-13T11:23:35;0.30;94.20
4090;DHT22;2059;48.538;12.146;2022-12-13T11:28:57;0.10;94.60
4090;DHT22;2059;48.538;12.146;2022-12-13T11:34:10;0.40;94.80
4090;DHT22;2059;48.538;12.146;2022-12-13T11:39:20;0.10;94.50
4090;DHT22;2059;48.538;12.146;2022-12-13T11:44:31;0.40;94.20
4090;DHT22;2059;48.538;12.146;2022-12-13T11:49:38;0.90;93.80
4090;DHT22;2059;48.538;12.146;2022-12-13T11:54:48;0.50;93.60
4090;DHT22;2059;48.538;12.146;2022-12-13T11:59:55;0.30;93.80
4090;DHT22;2059;48.538;12.146;2022-12-13T12:05:01;0.00;93.70
4090;DHT22;2059;48.538;12.146;2022-12-13T12:10:22;-0.20;94.50
4090;DHT22;2059;48.538;12.146;2022-12-13T12:15:28;-0.40;94.30
4090;DHT22;2059;48.538;12.146;2022-12-13T12:20:42;-0.40;94.70
4090;DHT22;2059;48.538;12.146;2022-12-13T12:25:50;-0.40;95.20
4090;DHT22;2059;48.538;12.146;2022-12-13T12:30:59;-0.20;94.70
4090;DHT22;2059;48.538;12.146;2022-12-13T12:36:15;-0.20;93.90
4090;DHT22;2059;48.538;12.146;2022-12-13T12:41:29;-0.40;94.80
4090;DHT22;2059;48.538;12.146;2022-12-13T12:46:42;-0.20;94.60
4090;DHT22;2059;48.538;12.146;2022-12-13T12:51:53;-0.10;94.60
4090;DHT22;2059;48.538;12.146;2022-12-13T12:57:03;-0.20;94.00
4090;DHT22;2059;48.538;12.146;2022-12-13T13:02:16;-0.70;94.90
4090;DHT22;2059;48.538;12.146;2022-12-13T13:07:22;-0.40;94.70
4090;DHT22;2059;48.538;12.146;2022-12-13T13:12:27;-0.60;94.50
4090;DHT22;2059;48.538;12.146;2022-12-13T13:17:45;-0.60;95.00
4090;DHT22;2059;48.538;12.146;2022-12-13T13:22:48;-0.50;95.00
4090;DHT22;2059;48.538;12.146;2022-12-13T13:28:00;-0.30;94.50
4090;DHT22;2059;48.538;12.146;2022-12-13T13:33:02;-0.40;94.50
4090;DHT22;2059;48.538;12.146;2022-12-13T13:38:26;-0.90;94.80
4090;DHT22;2059;48.538;12.146;2022-12-13T13:43:30;-0.70;94.80
4090;DHT22;2059;48.538;12.146;2022-12-13T13:48:45;-0.80;94.90
4090;DHT22;2059;48.538;12.146;2022-12-13T13:54:05;-1.20;95.20
4090;DHT22;2059;48.538;12.146;2022-12-13T13:59:51;-1.10;95.30
4090;DHT22;2059;48.538;12.146;2022-12-13T14:10:49;-1.50;95.50
4090;DHT22;2059;48.538;12.146;2022-12-13T14:16:29;-1.30;94.90
4090;DHT22;2059;48.538;12.146;2022-12-13T14:21:50;-1.70;95.50
4090;DHT22;2059;48.538;12.146;2022-12-13T14:27:06;-1.70;95.80
4090;DHT22;2059;48.538;12.146;2022-12-13T14:32:19;-1.50;95.00
4090;DHT22;2059;48.538;12.146;2022-12-13T14:37:25;-1.70;95.00
4090;DHT22;2059;48.538;12.146;2022-12-13T14:42:29;-1.70;95.10
4090;DHT22;2059;48.538;12.146;2022-12-13T14:47:35;-1.70;95.10
4090;DHT22;2059;48.538;12.146;2022-12-13T14:52:38;-1.70;95.30
4090;DHT22;2059;48.538;12.146;2022-12-13T14:57:50;-1.90;95.70
4090;DHT22;2059;48.538;12.146;2022-12-13T15:02:56;-1.70;95.50
4090;DHT22;2059;48.538;12.146;2022-12-13T15:07:59;-1.90;95.30
4090;DHT22;2059;48.538;12.146;2022-12-13T15:13:02;-1.90;95.30
4090;DHT22;2059;48.538;12.146;2022-12-13T15:18:15;-2.10;95.70
4090;DHT22;2059;48.538;12.146;2022-12-13T15:23:21;-2.10;95.70
4090;DHT22;2059;48.538;12.146;2022-12-13T15:28:26;-1.90;95.40
4090;DHT22;2059;48.538;12.146;2022-12-13T15:33:30;-2.00;95.50
4090;DHT22;2059;48.538;12.146;2022-12-13T15:38:33;-2.00;95.60
4090;DHT22;2059;48.538;12.146;2022-12-13T15:43:42;-1.90;95.30
4090;DHT22;2059;48.538;12.146;2022-12-13T15:48:48;-2.00;95.10
4090;DHT22;2059;48.538;12.146;2022-12-13T15:54:05;-2.10;95.60
4090;DHT22;2059;48.538;12.146;2022-12-13T15:59:24;-2.20;95.70
4090;DHT22;2059;48.538;12.146;2022-12-13T16:04:29;-2.30;96.10
4090;DHT22;2059;48.538;12.146;2022-12-13T16:09:34;-1.90;95.20
4090;DHT22;2059;48.538;12.146;2022-12-13T16:14:41;-2.10;95.20
4090;DHT22;2059;48.538;12.146;2022-12-13T16:19:45;-2.20;95.70
4090;DHT22;2059;48.538;12.146;2022-12-13T16:24:47;-2.10;95.90
4090;DHT22;2059;48.538;12.146;2022-12-13T16:29:49;-2.10;95.60
4090;DHT22;2059;48.538;12.146;2022-12-13T16:34:52;-2.00;95.30
4090;DHT22;2059;48.538;12.146;2022-12-13T16:39:54;-2.30;95.50
4090;DHT22;2059;48.538;12.146;2022-12-13T16:44:56;-2.20;95.80
4090;DHT22;2059;48.538;12.146;2022-12-13T16:50:02;-2.30;95.90
4090;DHT22;2059;48.538;12.146;2022-12-13T16:55:05;-2.10;95.80
4090;DHT22;2059;48.538;12.146;2022-12-13T17:05:11;-2.20;96.30
4090;DHT22;2059;48.538;12.146;2022-12-13T17:10:13;-2.20;96.20
4090;DHT22;2059;48.538;12.146;2022-12-13T17:15:15;-2.20;96.00
4090;DHT22;2059;48.538;12.146;2022-12-13T17:20:19;-2.20;95.90
4090;DHT22;2059;48.538;12.146;2022-12-13T17:25:21;-2.30;96.30
4090;DHT22;2059;48.538;12.146;2022-12-13T17:30:23;-2.30;96.00
4090;DHT22;2059;48.538;12.146;2022-12-13T17:35:26;-2.30;95.80
4090;DHT22;2059;48.538;12.146;2022-12-13T17:40:28;-2.60;96.20
4090;DHT22;2059;48.538;12.146;2022-12-13T17:45:30;-2.70;96.40
4090;DHT22;2059;48.538;12.146;2022-12-13T17:50:33;-3.00;96.70
4090;DHT22;2059;48.538;12.146;2022-12-13T17:55:37;-2.80;97.10
4090;DHT22;2059;48.538;12.146;2022-12-13T18:00:39;-2.70;96.70
4090;DHT22;2059;48.538;12.146;2022-12-13T18:05:43;-2.60;96.60
4090;DHT22;2059;48.538;12.146;2022-12-13T18:10:51;-2.80;96.90
4090;DHT22;2059;48.538;12.146;2022-12-13T18:15:54;-2.60;96.90
4090;DHT22;2059;48.538;12.146;2022-12-13T18:21:01;-2.60;96.70
4090;DHT22;2059;48.538;12.146;2022-12-13T18:26:05;-2.70;96.70
4090;DHT22;2059;48.538;12.146;2022-12-13T18:31:09;-2.70;96.60
4090;DHT22;2059;48.538;12.146;2022-12-13T18:36:13;-2.60;96.70
4090;DHT22;2059;48.538;12.146;2022-12-13T18:41:17;-2.60;96.70
4090;DHT22;2059;48.538;12.146;2022-12-13T18:46:19;-2.60;96.80
4090;DHT22;2059;48.538;12.146;2022-12-13T18:51:23;-2.60;96.90
4090;DHT22;2059;48.538;12.146;2022-12-13T18:56:25;-2.80;97.10
4090;DHT22;2059;48.538;12.146;2022-12-13T19:01:27;-2.60;96.90
4090;DHT22;2059;48.538;12.146;2022-12-13T19:06:31;-2.50;96.90
4090;DHT22;2059;48.538;12.146;2022-12-13T19:11:33;-2.60;97.00
4090;DHT22;2059;48.538;12.146;2022-12-13T19:16:35;-2.80;97.20
4090;DHT22;2059;48.538;12.146;2022-12-13T19:21:38;-2.70;97.40
4090;DHT22;2059;48.538;12.146;2022-12-13T19:26:40;-2.90;97.60
4090;DHT22;2059;48.538;12.146;2022-12-13T19:31:42;-3.00;97.90
4090;DHT22;2059;48.538;12.146;2022-12-13T19:36:45;-2.80;97.60
4090;DHT22;2059;48.538;12.146;2022-12-13T19:41:47;-2.70;97.90
4090;DHT22;2059;48.538;12.146;2022-12-13T19:46:48;-2.80;98.10
4090;DHT22;2059;48.538;12.146;2022-12-13T19:51:52;-3.10;98.40
4090;DHT22;2059;48.538;12.146;2022-12-13T19:56:54;-2.90;98.60
4090;DHT22;2059;48.538;12.146;2022-12-13T20:01:56;-2.50;98.30
4090;DHT22;2059;48.538;12.146;2022-12-13T20:06:59;-2.70;98.60
4090;DHT22;2059;48.538;12.146;2022-12-13T20:12:01;-2.70;98.70
4090;DHT22;2059;48.538;12.146;2022-12-13T20:17:03;-2.60;98.80
4090;DHT22;2059;48.538;12.146;2022-12-13T20:22:06;-2.50;98.60
4090;DHT22;2059;48.538;12.146;2022-12-13T20:27:08;-2.60;98.80
4090;DHT22;2059;48.538;12.146;2022-12-13T20:32:10;-2.50;98.60
4090;DHT22;2059;48.538;12.146;2022-12-13T20:37:13;-2.50;98.70
4090;DHT22;2059;48.538;12.146;2022-12-13T20:42:15;-2.40;98.70
4090;DHT22;2059;48.538;12.146;2022-12-13T20:47:17;-2.40;98.30
4090;DHT22;2059;48.538;12.146;2022-12-13T20:52:20;-2.30;98.60
4090;DHT22;2059;48.538;12.146;2022-12-13T20:57:22;-2.40;98.90
4090;DHT22;2059;48.538;12.146;2022-12-13T21:02:24;-2.40;98.80
4090;DHT22;2059;48.538;12.146;2022-12-13T21:07:28;-2.30;98.60
4090;DHT22;2059;48.538;12.146;2022-12-13T21:12:47;-2.40;98.70
4090;DHT22;2059;48.538;12.146;2022-12-13T21:17:49;-2.50;98.50
4090;DHT22;2059;48.538;12.146;2022-12-13T21:22:52;-2.50;98.50
4090;DHT22;2059;48.538;12.146;2022-12-13T21:27:54;-2.60;98.40
4090;DHT22;2059;48.538;12.146;2022-12-13T21:32:55;-2.50;98.20
4090;DHT22;2059;48.538;12.146;2022-12-13T21:37:59;-2.60;98.10
4090;DHT22;2059;48.538;12.146;2022-12-13T21:43:01;-2.80;98.30
4090;DHT22;2059;48.538;12.146;2022-12-13T21:48:03;-2.50;98.00
4090;DHT22;2059;48.538;12.146;2022-12-13T21:53:06;-2.50;97.70
4090;DHT22;2059;48.538;12.146;2022-12-13T21:58:08;-2.80;97.90
4090;DHT22;2059;48.538;12.146;2022-12-13T22:03:27;-2.60;97.90
4090;DHT22;2059;48.538;12.146;2022-12-13T22:08:31;-2.70;97.90
4090;DHT22;2059;48.538;12.146;2022-12-13T22:13:32;-2.70;97.90
4090;DHT22;2059;48.538;12.146;2022-12-13T22:18:34;-2.80;98.00
4090;DHT22;2059;48.538;12.146;2022-12-13T22:23:37;-2.80;97.70
4090;DHT22;2059;48.538;12.146;2022-12-13T22:28:39;-3.00;97.80
4090;DHT22;2059;48.538;12.146;2022-12-13T22:33:41;-2.80;97.80
4090;DHT22;2059;48.538;12.146;2022-12-13T22:38:47;-2.90;97.90
4090;DHT22;2059;48.538;12.146;2022-12-13T22:43:50;-2.70;97.20
4090;DHT22;2059;48.538;12.146;2022-12-13T22:48:52;-2.80;97.70
4090;DHT22;2059;48.538;12.146;2022-12-13T22:53:55;-2.70;97.60
4090;DHT22;2059;48.538;12.146;2022-12-13T22:58:59;-2.50;97.10
4090;DHT22;2059;48.538;12.146;2022-12-13T23:04:02;-2.70;97.50
4090;DHT22;2059;48.538;12.146;2022-12-13T23:09:07;-2.70;97.60
4090;DHT22;2059;48.538;12.146;2022-12-13T23:14:14;-2.50;97.20
4090;DHT22;2059;48.538;12.146;2022-12-13T23:19:16;-2.50;97.60
4090;DHT22;2059;48.538;12.146;2022-12-13T23:24:19;-2.60;97.50
4090;DHT22;2059;48.538;12.146;2022-12-13T23:29:21;-2.80;97.60
4090;DHT22;2059;48.538;12.146;2022-12-13T23:34:23;-2.60;97.40
4090;DHT22;2059;48.538;12.146;2022-12-13T23:39:26;-2.70;97.40
4090;DHT22;2059;48.538;12.146;2022-12-13T23:44:28;-2.60;97.50
4090;DHT22;2059;48.538;12.146;2022-12-13T23:49:30;-2.50;97.30
4090;DHT22;2059;48.538;12.146;2022-12-13T23:54:33;-2.50;97.20
4090;DHT22;2059;48.538;12.146;2022-12-13T23:59:35;-2.70;97.30
